createdAt,value
2023-01-13T00:01:38.485Z,25.80
2023-01-13T00:04:06.239Z,25.25
2023-01-13T00:06:35.267Z,24.67
2023-01-13T00:09:03.337Z,22.98
2023-01-13T00:15:39.604Z,23.48
2023-01-13T00:18:07.512Z,23.80
2023-01-13T00:20:35.194Z,24.52
2023-01-13T00:23:04.494Z,25.10
2023-01-13T00:25:32.188Z,24.65
2023-01-13T00:27:59.941Z,24.83
2023-01-13T00:30:28.940Z,25.88
2023-01-13T00:32:56.680Z,26.25
2023-01-13T00:35:29.038Z,26.88
2023-01-13T00:37:57.072Z,26.05
2023-01-13T00:40:24.981Z,26.02
2023-01-13T00:43:11.423Z,25.70
2023-01-13T00:45:39.206Z,24.70
2023-01-13T00:48:06.893Z,24.52
2023-01-13T00:50:34.589Z,23.90
2023-01-13T00:53:02.682Z,23.92
2023-01-13T00:55:33.406Z,24.98
2023-01-13T00:58:03.709Z,25.85
2023-01-13T01:00:32.145Z,25.88
2023-01-13T01:02:59.939Z,24.67
2023-01-13T01:05:27.672Z,25.58
2023-01-13T01:07:55.411Z,24.90
2023-01-13T01:10:23.116Z,25.63
2023-01-13T01:12:51.022Z,26.67
2023-01-13T01:15:18.812Z,25.10
2023-01-13T01:17:46.523Z,25.52
2023-01-13T01:20:14.259Z,25.05
2023-01-13T01:22:41.973Z,26.33
2023-01-13T01:25:09.925Z,23.60
2023-01-13T01:27:37.683Z,24.98
2023-01-13T01:30:05.689Z,25.00
2023-01-13T01:32:34.820Z,25.20
2023-01-13T01:35:02.492Z,23.23
2023-01-13T01:37:30.169Z,23.35
2023-01-13T01:44:34.536Z,23.38
2023-01-13T01:51:12.989Z,28.63
2023-01-13T01:53:42.052Z,27.15
2023-01-13T01:56:11.702Z,28.05
2023-01-13T02:03:00.693Z,24.42
2023-01-13T02:05:31.535Z,26.27
2023-01-13T02:12:30.209Z,24.45
2023-01-13T02:15:07.475Z,24.40
2023-01-13T02:17:38.507Z,25.63
2023-01-13T02:28:24.783Z,22.63
2023-01-13T02:31:33.292Z,23.27
2023-01-13T02:38:47.115Z,26.17
2023-01-13T02:59:49.028Z,26.10
2023-01-13T03:02:19.436Z,25.73
2023-01-13T03:04:52.037Z,24.80
2023-01-13T03:12:10.987Z,24.67
2023-01-13T03:14:43.090Z,24.10
2023-01-13T03:17:12.785Z,26.43
2023-01-13T03:24:00.546Z,24.35
2023-01-13T03:31:26.146Z,24.67
2023-01-13T03:34:23.201Z,23.88
2023-01-13T03:36:54.652Z,24.33
2023-01-13T03:39:26.717Z,25.00
2023-01-13T03:46:23.871Z,23.98
2023-01-13T03:48:57.945Z,25.67
2023-01-13T03:55:52.457Z,24.25
2023-01-13T04:02:51.503Z,23.73
2023-01-13T04:13:08.681Z,25.90
2023-01-13T04:19:12.003Z,26.20
2023-01-13T04:26:20.079Z,23.30
2023-01-13T04:28:47.899Z,24.92
2023-01-13T04:31:15.897Z,24.67
2023-01-13T04:33:47.629Z,26.88
2023-01-13T04:36:20.179Z,24.15
2023-01-13T04:43:15.907Z,24.58
2023-01-13T04:45:45.640Z,24.63
2023-01-13T04:48:14.906Z,25.83
2023-01-13T04:50:43.692Z,26.73
2023-01-13T04:53:11.568Z,25.75
2023-01-13T04:55:40.707Z,25.90
2023-01-13T05:06:43.459Z,25.17
2023-01-13T05:09:13.422Z,24.73
2023-01-13T05:11:59.620Z,24.13
2023-01-13T05:14:46.056Z,23.02
2023-01-13T05:17:17.364Z,25.73
2023-01-13T05:19:45.134Z,25.13
2023-01-13T05:22:31.411Z,24.40
2023-01-13T05:25:17.544Z,26.58
2023-01-13T05:27:45.281Z,24.23
2023-01-13T05:32:28.110Z,24.63
2023-01-13T05:34:56.295Z,25.48
2023-01-13T05:37:24.296Z,23.67
2023-01-13T05:40:10.989Z,25.45
2023-01-13T05:42:57.229Z,26.55
2023-01-13T05:45:25.079Z,26.67
2023-01-13T05:47:52.909Z,26.13
2023-01-13T05:50:20.736Z,26.10
2023-01-13T05:52:48.348Z,25.02
2023-01-13T05:55:16.050Z,24.25
2023-01-13T05:57:43.672Z,26.77
2023-01-13T06:00:12.194Z,26.08
2023-01-13T06:02:40.062Z,25.63
2023-01-13T06:05:07.915Z,24.05
2023-01-13T06:07:35.625Z,25.38
2023-01-13T06:10:03.603Z,29.85
2023-01-13T06:12:31.218Z,27.48
2023-01-13T06:14:58.804Z,25.00
2023-01-13T06:17:26.446Z,23.05
2023-01-13T06:19:54.049Z,22.58
2023-01-13T06:22:28.018Z,25.35
2023-01-13T06:24:59.275Z,24.35
2023-01-13T06:27:26.943Z,22.85
2023-01-13T06:29:56.670Z,23.75
2023-01-13T06:32:27.476Z,24.02
2023-01-13T06:35:05.628Z,23.67
2023-01-13T06:37:34.122Z,26.35
2023-01-13T06:40:03.117Z,25.08
2023-01-13T06:42:50.470Z,24.20
2023-01-13T06:45:18.384Z,23.60
2023-01-13T06:47:46.088Z,22.48
2023-01-13T06:50:13.749Z,21.83
2023-01-13T06:52:41.687Z,22.60
2023-01-13T06:55:09.363Z,24.10
2023-01-13T06:57:47.083Z,23.25
2023-01-13T07:00:15.784Z,24.10
2023-01-13T07:02:43.526Z,23.83
2023-01-13T07:05:11.520Z,22.60
2023-01-13T07:07:39.402Z,23.73
2023-01-13T07:10:09.811Z,22.52
2023-01-13T07:12:59.945Z,22.08
2023-01-13T07:15:28.791Z,20.88
2023-01-13T07:17:56.737Z,21.88
2023-01-13T07:20:24.653Z,22.13
2023-01-13T07:22:55.883Z,20.60
2023-01-13T07:25:24.092Z,22.67
2023-01-13T07:27:51.703Z,22.63
2023-01-13T07:30:19.567Z,24.05
2023-01-13T07:32:47.231Z,24.33
2023-01-13T07:35:14.888Z,22.95
2023-01-13T07:37:42.492Z,24.75
2023-01-13T07:40:10.408Z,22.25
2023-01-13T07:42:57.954Z,22.40
2023-01-13T07:45:25.529Z,23.50
2023-01-13T07:47:53.934Z,22.27
2023-01-13T07:50:23.612Z,23.65
2023-01-13T07:52:51.866Z,23.63
2023-01-13T07:55:19.534Z,25.63
2023-01-13T07:57:48.613Z,25.80
2023-01-13T08:00:16.512Z,23.63
2023-01-13T08:02:44.227Z,24.70
2023-01-13T08:05:11.858Z,23.63
2023-01-13T08:07:40.371Z,25.00
2023-01-13T08:10:08.264Z,26.35
2023-01-13T08:12:57.265Z,25.55
2023-01-13T08:15:24.965Z,24.20
2023-01-13T08:17:52.639Z,24.65
2023-01-13T08:20:20.280Z,26.00
2023-01-13T08:22:47.893Z,24.75
2023-01-13T08:25:15.569Z,25.95
2023-01-13T08:27:43.203Z,25.23
2023-01-13T08:30:11.487Z,25.63
2023-01-13T08:32:39.146Z,24.10
2023-01-13T08:35:07.829Z,24.67
2023-01-13T08:37:35.409Z,24.52
2023-01-13T08:40:03.207Z,24.58
2023-01-13T08:42:31.081Z,24.65
2023-01-13T08:44:58.900Z,25.17
2023-01-13T08:47:28.056Z,26.33
2023-01-13T08:49:55.737Z,26.40
2023-01-13T08:52:23.447Z,26.23
2023-01-13T08:54:51.048Z,28.95
2023-01-13T08:57:22.097Z,28.10
2023-01-13T08:59:49.760Z,30.02
2023-01-13T09:02:19.251Z,30.52
2023-01-13T09:04:47.253Z,31.58
2023-01-13T09:07:14.910Z,30.80
2023-01-13T09:09:42.655Z,30.63
2023-01-13T09:12:33.492Z,27.63
2023-01-13T09:15:01.798Z,25.80
2023-01-13T09:17:29.419Z,26.85
2023-01-13T09:19:57.047Z,26.00
2023-01-13T09:22:27.111Z,26.17
2023-01-13T09:24:55.727Z,31.30
2023-01-13T09:27:23.703Z,27.02
2023-01-13T09:29:51.436Z,27.77
2023-01-13T09:32:19.084Z,26.55
2023-01-13T09:35:01.952Z,25.08
2023-01-13T09:37:29.669Z,25.67
2023-01-13T09:39:57.638Z,26.05
2023-01-13T09:42:59.704Z,25.45
2023-01-13T09:45:31.674Z,25.75
2023-01-13T09:48:08.353Z,25.30
2023-01-13T09:50:38.996Z,25.55
2023-01-13T09:53:08.253Z,24.30
2023-01-13T09:55:39.050Z,23.70
2023-01-13T09:58:14.495Z,24.13
2023-01-13T10:01:02.354Z,23.42
2023-01-13T10:03:34.284Z,23.77
2023-01-13T10:06:09.314Z,23.65
2023-01-13T10:08:40.733Z,25.52
2023-01-13T10:11:34.639Z,22.73
2023-01-13T10:14:04.871Z,23.55
2023-01-13T10:16:42.347Z,24.83
2023-01-13T10:19:18.812Z,23.33
2023-01-13T10:21:59.762Z,24.00
2023-01-13T10:24:27.393Z,24.23
2023-01-13T10:27:04.158Z,25.05
2023-01-13T10:29:32.256Z,23.83
2023-01-13T10:32:00.469Z,24.70
2023-01-13T10:34:28.640Z,25.33
2023-01-13T10:37:09.223Z,26.83
2023-01-13T10:39:44.714Z,25.55
2023-01-13T10:42:14.205Z,24.83
2023-01-13T10:44:59.003Z,24.40
2023-01-13T10:47:31.449Z,25.98
2023-01-13T10:50:05.943Z,26.05
2023-01-13T10:52:39.454Z,25.55
2023-01-13T10:55:33.508Z,26.75
2023-01-13T10:58:20.527Z,26.63
2023-01-13T11:00:49.797Z,26.08
2023-01-13T11:03:22.015Z,29.65
2023-01-13T11:05:54.353Z,29.77
2023-01-13T11:11:25.990Z,24.73
2023-01-13T11:14:14.051Z,25.70
2023-01-13T11:16:52.927Z,26.27
2023-01-13T11:19:23.378Z,26.73
2023-01-13T11:22:14.093Z,25.70
2023-01-13T11:25:01.852Z,24.73
2023-01-13T11:27:29.427Z,22.95
2023-01-13T11:30:03.677Z,23.55
2023-01-13T11:32:34.641Z,24.17
2023-01-13T11:35:05.173Z,24.80
2023-01-13T11:37:34.325Z,24.73
2023-01-13T11:40:05.773Z,25.13
2023-01-13T11:42:36.722Z,26.52
2023-01-13T11:45:16.865Z,27.05
2023-01-13T11:47:46.887Z,27.75
2023-01-13T11:50:31.405Z,28.00
2023-01-13T11:52:59.123Z,27.38
2023-01-13T11:55:32.898Z,25.58
2023-01-13T11:58:06.923Z,25.13
2023-01-13T12:00:34.611Z,25.13
2023-01-13T12:03:05.007Z,24.85
2023-01-13T12:05:43.514Z,25.45
2023-01-13T12:08:29.485Z,25.38
2023-01-13T12:11:06.108Z,26.95
2023-01-13T12:13:36.517Z,27.73
2023-01-13T12:16:24.024Z,26.92
2023-01-13T12:19:10.565Z,25.10
2023-01-13T12:21:57.814Z,23.85
2023-01-13T12:24:31.498Z,23.15
2023-01-13T12:27:11.301Z,23.25
2023-01-13T12:29:39.531Z,24.30
2023-01-13T12:32:15.294Z,23.98
2023-01-13T12:34:58.158Z,23.45
2023-01-13T12:37:34.911Z,22.98
2023-01-13T12:40:13.197Z,23.50
2023-01-13T12:43:05.481Z,23.33
2023-01-13T12:45:33.830Z,23.95
2023-01-13T12:48:01.579Z,24.40
2023-01-13T12:50:29.205Z,23.15
2023-01-13T12:53:36.340Z,22.70
2023-01-13T12:56:22.298Z,25.88
2023-01-13T12:58:49.944Z,26.77
2023-01-13T13:01:18.341Z,24.13
2023-01-13T13:04:05.992Z,24.42
2023-01-13T13:06:36.101Z,24.63
2023-01-13T13:09:04.340Z,24.85
2023-01-13T13:11:50.903Z,24.90
2023-01-13T13:14:38.533Z,24.02
2023-01-13T13:17:27.924Z,29.55
2023-01-13T13:19:56.731Z,23.52
2023-01-13T13:22:27.586Z,24.35
2023-01-13T13:24:55.263Z,25.23
2023-01-13T13:27:26.141Z,24.33
2023-01-13T13:29:53.915Z,22.45
2023-01-13T13:32:21.494Z,21.98
2023-01-13T13:34:49.041Z,21.95
2023-01-13T13:37:55.446Z,22.48
2023-01-13T13:40:43.397Z,21.63
2023-01-13T13:43:36.598Z,20.20
2023-01-13T13:46:40.243Z,20.25
2023-01-13T13:49:07.912Z,20.52
2023-01-13T13:51:42.581Z,21.25
2023-01-13T13:54:14.755Z,19.20
2023-01-13T13:56:44.765Z,18.60
2023-01-13T13:59:13.741Z,12.95
2023-01-13T14:01:43.835Z,10.60
2023-01-13T14:04:20.009Z,9.63
2023-01-13T14:06:55.863Z,10.20
2023-01-13T14:09:24.409Z,10.23
2023-01-13T14:11:56.705Z,16.38
2023-01-13T14:14:25.117Z,11.77
2023-01-13T14:16:54.890Z,14.40
2023-01-13T14:19:36.021Z,15.80
2023-01-13T14:22:05.644Z,15.95
2023-01-13T14:24:33.305Z,14.60
2023-01-13T14:27:17.557Z,15.38
2023-01-13T14:29:45.706Z,14.13
2023-01-13T14:32:15.471Z,12.25
2023-01-13T14:34:43.124Z,12.57
2023-01-13T14:37:29.093Z,13.48
2023-01-13T14:39:57.219Z,10.65
2023-01-13T14:42:25.422Z,10.70
2023-01-13T14:44:53.021Z,10.55
2023-01-13T14:47:28.433Z,10.45
2023-01-13T14:50:08.384Z,10.15
2023-01-13T14:52:38.267Z,11.38
2023-01-13T14:55:10.099Z,11.15
2023-01-13T14:57:39.655Z,10.95
2023-01-13T15:00:08.354Z,11.00
2023-01-13T15:02:40.773Z,10.88
2023-01-13T15:05:17.754Z,11.10
2023-01-13T15:07:51.446Z,12.07
2023-01-13T15:10:19.356Z,13.25
2023-01-13T15:12:47.270Z,12.50
2023-01-13T15:15:23.025Z,14.55
2023-01-13T15:17:50.690Z,14.25
2023-01-13T15:20:19.552Z,12.77
2023-01-13T15:22:47.964Z,13.70
2023-01-13T15:25:15.810Z,13.77
2023-01-13T15:27:50.137Z,14.90
2023-01-13T15:30:26.287Z,15.50
2023-01-13T15:32:55.118Z,16.15
2023-01-13T15:35:23.560Z,16.65
2023-01-13T15:37:51.331Z,15.73
2023-01-13T15:40:18.952Z,17.75
2023-01-13T15:43:05.487Z,15.85
2023-01-13T15:45:52.631Z,17.55
2023-01-13T15:48:24.270Z,17.92
2023-01-13T15:50:52.347Z,18.75
2023-01-13T15:53:20.057Z,19.02
2023-01-13T15:55:49.536Z,18.83
2023-01-13T15:58:18.989Z,18.67
2023-01-13T16:00:46.706Z,18.75
2023-01-13T16:03:14.792Z,18.58
2023-01-13T16:05:42.865Z,18.35
2023-01-13T16:08:17.249Z,17.77
2023-01-13T16:10:45.405Z,16.98
2023-01-13T16:13:13.429Z,17.45
2023-01-13T16:15:48.841Z,18.15
2023-01-13T16:18:18.252Z,18.70
2023-01-13T16:20:46.117Z,19.40
2023-01-13T16:23:13.823Z,18.98
2023-01-13T16:25:44.765Z,20.05
2023-01-13T16:28:28.233Z,19.75
2023-01-13T16:33:23.344Z,21.15
2023-01-13T16:36:10.934Z,20.67
2023-01-13T16:38:38.537Z,20.10
2023-01-13T16:41:07.071Z,20.48
2023-01-13T16:43:35.019Z,19.75
2023-01-13T16:46:02.671Z,20.08
2023-01-13T16:48:30.568Z,21.75
2023-01-13T16:50:58.284Z,22.92
2023-01-13T16:53:26.480Z,20.65
2023-01-13T16:55:54.030Z,19.58
2023-01-13T16:58:21.844Z,23.33
2023-01-13T17:00:49.493Z,23.33
2023-01-13T17:03:17.458Z,24.92
2023-01-13T17:05:46.964Z,22.80
2023-01-13T17:08:17.637Z,23.33
2023-01-13T17:10:46.279Z,23.15
2023-01-13T17:13:16.754Z,22.02
2023-01-13T17:15:45.500Z,22.55
2023-01-13T17:18:13.700Z,21.17
2023-01-13T17:20:41.657Z,21.77
2023-01-13T17:23:09.299Z,23.27
2023-01-13T17:25:36.880Z,22.33
2023-01-13T17:28:04.529Z,24.65
2023-01-13T17:30:32.164Z,20.98
2023-01-13T17:32:59.751Z,23.33
2023-01-13T17:35:27.565Z,25.73
2023-01-13T17:37:55.419Z,25.25
2023-01-13T17:40:23.575Z,27.17
2023-01-13T17:42:51.320Z,26.52
2023-01-13T17:45:18.886Z,27.42
2023-01-13T17:47:47.562Z,29.25
2023-01-13T17:50:15.871Z,28.55
2023-01-13T17:52:43.504Z,28.10
2023-01-13T17:55:11.131Z,28.20
2023-01-13T17:57:38.713Z,28.73
2023-01-13T18:00:06.601Z,30.45
2023-01-13T18:02:39.937Z,30.13
2023-01-13T18:05:07.801Z,26.60
2023-01-13T18:07:35.435Z,26.45
2023-01-13T18:10:03.337Z,25.55
2023-01-13T18:12:30.949Z,27.63
2023-01-13T18:14:58.524Z,30.88
2023-01-13T18:17:26.145Z,27.95
2023-01-13T18:20:12.250Z,27.27
2023-01-13T18:22:58.515Z,29.48
2023-01-13T18:25:44.865Z,26.02
2023-01-13T18:28:12.508Z,25.73
2023-01-13T18:30:40.189Z,26.73
2023-01-13T18:33:07.818Z,27.08
2023-01-13T18:35:35.495Z,26.48
2023-01-13T18:38:10.954Z,26.63
2023-01-13T18:40:38.777Z,26.60
2023-01-13T18:43:06.434Z,28.58
2023-01-13T18:45:34.065Z,28.27
2023-01-13T18:48:02.654Z,30.48
2023-01-13T18:50:30.866Z,33.40
2023-01-13T18:52:58.680Z,27.38
2023-01-13T18:55:28.711Z,29.88
2023-01-13T18:57:56.858Z,28.88
2023-01-13T19:00:36.800Z,27.13
2023-01-13T19:05:34.274Z,28.20
2023-01-13T19:08:02.453Z,27.65
2023-01-13T19:10:32.277Z,29.02
2023-01-13T19:13:01.737Z,28.83
2023-01-13T19:15:29.644Z,30.08
2023-01-13T19:17:57.324Z,33.08
2023-01-13T19:20:25.009Z,28.90
2023-01-13T19:22:54.514Z,30.70
2023-01-13T19:25:22.284Z,38.08
2023-01-13T19:27:50.283Z,42.40
2023-01-13T19:30:17.944Z,66.80
2023-01-13T19:32:45.616Z,36.75
2023-01-13T19:35:17.487Z,31.45
2023-01-13T19:37:45.600Z,33.50
2023-01-13T19:40:17.596Z,46.28
2023-01-13T19:43:03.927Z,29.63
2023-01-13T19:45:33.729Z,26.20
2023-01-13T19:48:02.363Z,28.02
2023-01-13T19:50:30.367Z,26.42
2023-01-13T19:52:58.114Z,27.48
2023-01-13T19:55:25.732Z,27.08
2023-01-13T19:57:53.365Z,26.33
2023-01-13T20:00:21.913Z,25.48
2023-01-13T20:02:52.017Z,24.98
2023-01-13T20:05:22.419Z,26.05
2023-01-13T20:07:51.728Z,30.27
2023-01-13T20:10:20.799Z,29.35
2023-01-13T20:12:48.555Z,131.60
2023-01-13T20:15:29.577Z,166.35
2023-01-13T20:17:58.093Z,119.60
2023-01-13T20:20:27.326Z,115.93
2023-01-13T20:22:55.298Z,53.97
2023-01-13T20:25:29.112Z,44.03
2023-01-13T20:27:58.922Z,22.73
2023-01-13T20:30:26.788Z,21.00
2023-01-13T20:32:56.108Z,22.55
2023-01-13T20:35:29.256Z,22.00
2023-01-13T20:37:57.979Z,21.50
2023-01-13T20:40:27.268Z,21.05
2023-01-13T20:42:55.272Z,22.73
2023-01-13T20:45:23.812Z,24.75
2023-01-13T20:47:52.960Z,28.17
2023-01-13T20:50:21.530Z,31.50
2023-01-13T20:52:50.808Z,32.00
2023-01-13T20:55:19.226Z,23.58
2023-01-13T20:57:50.423Z,21.15
2023-01-13T21:00:20.892Z,23.50
2023-01-13T21:02:50.587Z,21.88
2023-01-13T21:05:18.635Z,23.30
2023-01-13T21:07:48.992Z,23.90
2023-01-13T21:10:18.406Z,24.35
2023-01-13T21:13:09.359Z,24.63
2023-01-13T21:15:37.327Z,29.17
2023-01-13T21:18:24.686Z,25.45
2023-01-13T21:21:11.360Z,26.42
2023-01-13T21:23:42.097Z,24.15
2023-01-13T21:26:10.738Z,23.23
2023-01-13T21:28:38.490Z,20.88
2023-01-13T21:31:07.124Z,20.50
2023-01-13T21:33:35.030Z,20.80
2023-01-13T21:36:20.471Z,25.38
2023-01-13T21:38:52.309Z,32.95
2023-01-13T21:41:40.423Z,52.33
2023-01-13T21:44:37.410Z,40.83
2023-01-13T21:47:24.415Z,31.70
2023-01-13T21:49:52.137Z,45.03
2023-01-13T21:52:19.717Z,48.53
2023-01-13T21:55:19.963Z,28.27
2023-01-13T21:57:48.307Z,23.60
2023-01-13T22:00:16.754Z,27.55
2023-01-13T22:02:44.757Z,29.73
2023-01-13T22:05:12.928Z,27.92
2023-01-13T22:07:41.197Z,25.63
2023-01-13T22:10:10.271Z,23.92
2023-01-13T22:12:38.411Z,22.05
2023-01-13T22:15:06.651Z,21.45
2023-01-13T22:17:34.372Z,24.00
2023-01-13T22:20:04.539Z,27.58
2023-01-13T22:22:36.670Z,31.65
2023-01-13T22:25:06.977Z,36.10
2023-01-13T22:27:40.273Z,33.17
2023-01-13T22:30:09.928Z,30.23
2023-01-13T22:32:38.627Z,28.13
2023-01-13T22:35:07.845Z,27.08
2023-01-13T22:37:35.839Z,27.27
2023-01-13T22:40:03.955Z,27.08
2023-01-13T22:42:31.631Z,26.35
2023-01-13T22:44:59.882Z,27.25
2023-01-13T22:47:31.321Z,28.38
2023-01-13T22:49:58.891Z,25.35
2023-01-13T22:52:28.499Z,21.73
2023-01-13T22:54:56.136Z,22.27
2023-01-13T22:57:24.063Z,21.23
2023-01-13T22:59:51.725Z,23.40
2023-01-13T23:02:19.420Z,22.85
2023-01-13T23:04:47.093Z,20.58
2023-01-13T23:07:14.718Z,19.90
2023-01-13T23:09:43.423Z,20.08
2023-01-13T23:12:11.062Z,21.00
2023-01-13T23:14:38.665Z,19.25
2023-01-13T23:17:07.084Z,19.90
2023-01-13T23:19:34.755Z,19.00
2023-01-13T23:22:02.359Z,19.25
2023-01-13T23:24:30.059Z,19.70
2023-01-13T23:26:57.722Z,18.70
2023-01-13T23:29:25.344Z,19.70
2023-01-13T23:31:52.920Z,18.15
2023-01-13T23:34:20.527Z,18.83
2023-01-13T23:36:48.143Z,19.05
2023-01-13T23:39:15.725Z,18.15
2023-01-13T23:41:43.328Z,17.63
2023-01-13T23:44:11.006Z,18.83
2023-01-13T23:46:38.688Z,19.58
2023-01-13T23:49:06.352Z,20.85
2023-01-13T23:51:33.991Z,19.35
2023-01-13T23:54:01.710Z,20.70
2023-01-13T23:56:30.805Z,21.02
2023-01-13T23:58:58.763Z,20.65
